ADDS METAR Data INFO
IDs: Format: Raw Decoded Include TAF

Data at: 2318 UTC 15 Jul 2018

KHRL 152252Z 17018G24KT 7SM OVC033 33/22 A2994 RMK AO2 PK WND 15027/2226 SLP138 T03330222